Time;durP1;ratioP1;P1;durP2;ratioP2;P2;SDS_P1;SDS_P2;PMS_P1;PMS_P2;Temp;Humidity;BMP_temperature;BMP_pressure;BME280_temperature;BME280_humidity;BME280_pressure;Samples;Min_cycle;Max_cycle;Signal;HPM_P1;HPM_P2
2021/12/16 00:08:09;;;;;;;51.60;24.47;;;;;;;;;;5120144;27;20290;-74
2021/12/16 00:10:51;;;;;;;60.93;25.30;;;;;;;;;;5120514;27;20175;-76
2021/12/16 00:30:05;;;;;;;60.63;24.70;;;;;;;;;;5113398;27;20210;-74
2021/12/16 00:33:11;;;;;;;61.73;25.47;;;;;;;;;;5091935;27;20170;-73
2021/12/16 00:35:31;;;;;;;51.53;23.77;;;;;;;;;;5091707;28;20226;-74
2021/12/16 00:37:56;;;;;;;62.77;25.10;;;;;;;;;;5092421;28;20642;-74
2021/12/16 00:40:21;;;;;;;55.83;25.50;;;;;;;;;;5083173;27;20201;-74
2021/12/16 00:42:52;;;;;;;52.73;23.83;;;;;;;;;;5115627;27;20202;-75
2021/12/16 00:45:35;;;;;;;60.47;25.17;;;;;;;;;;5125659;27;20232;-74
2021/12/16 00:48:08;;;;;;;56.97;24.27;;;;;;;;;;5110798;28;20215;-78
2021/12/16 00:55:49;;;;;;;54.47;22.97;;;;;;;;;;5113205;27;20225;-76
2021/12/16 00:58:16;;;;;;;47.90;24.47;;;;;;;;;;5111484;28;20260;-76
2021/12/16 01:00:49;;;;;;;51.77;21.47;;;;;;;;;;5110754;27;20203;-75
2021/12/16 01:03:26;;;;;;;47.53;24.93;;;;;;;;;;5093163;28;20688;-76
2021/12/16 01:39:15;;;;;;;49.30;22.83;;;;;;;;;;5110494;27;20362;-76
2021/12/16 01:49:51;;;;;;;54.73;22.90;;;;;;;;;;5107040;28;20266;-76
2021/12/16 01:55:07;;;;;;;52.63;24.07;;;;;;;;;;5118485;27;20186;-77
2021/12/16 01:57:46;;;;;;;53.43;21.77;;;;;;;;;;5109197;28;20187;-78
2021/12/16 02:00:17;;;;;;;53.47;21.87;;;;;;;;;;5108326;27;20185;-77
2021/12/16 02:02:49;;;;;;;48.57;22.93;;;;;;;;;;5112179;27;20195;-77
2021/12/16 02:10:37;;;;;;;46.57;22.70;;;;;;;;;;5111737;28;20232;-75
2021/12/16 02:30:19;;;;;;;53.87;22.00;;;;;;;;;;5118147;27;20219;-75
2021/12/16 02:35:26;;;;;;;56.53;23.23;;;;;;;;;;5107856;28;20185;-75
2021/12/16 02:37:51;;;;;;;49.30;21.80;;;;;;;;;;5109960;27;20210;-76
2021/12/16 02:40:17;;;;;;;54.53;22.20;;;;;;;;;;5095973;28;20179;-76
2021/12/16 02:43:37;;;;;;;48.23;22.30;;;;;;;;;;5110026;28;20765;-75
2021/12/16 02:48:30;;;;;;;56.63;23.67;;;;;;;;;;5106738;28;20218;-77
2021/12/16 02:51:00;;;;;;;51.10;22.73;;;;;;;;;;5099353;28;20213;-77
2021/12/16 02:53:25;;;;;;;42.23;21.23;;;;;;;;;;5098485;28;20215;-77
2021/12/16 02:55:51;;;;;;;56.63;22.83;;;;;;;;;;5102870;28;20179;-75
2021/12/16 02:58:16;;;;;;;51.47;23.43;;;;;;;;;;5100584;28;20275;-76
2021/12/16 03:00:43;;;;;;;60.70;23.43;;;;;;;;;;5095015;28;20163;-75
2021/12/16 03:03:08;;;;;;;55.03;23.27;;;;;;;;;;5093201;28;20199;-78
2021/12/16 03:05:34;;;;;;;57.20;22.60;;;;;;;;;;5094660;28;20641;-75
2021/12/16 03:07:59;;;;;;;65.10;26.17;;;;;;;;;;5116811;27;20213;-76
2021/12/16 03:13:05;;;;;;;52.17;22.93;;;;;;;;;;5113482;28;20571;-75
2021/12/16 03:18:19;;;;;;;53.80;23.83;;;;;;;;;;5104304;27;20200;-76
2021/12/16 03:20:50;;;;;;;64.77;23.90;;;;;;;;;;5096875;28;20180;-76
2021/12/16 03:26:40;;;;;;;56.30;22.17;;;;;;;;;;5107539;27;20164;-75
2021/12/16 03:37:01;;;;;;;71.00;23.90;;;;;;;;;;5101773;28;20615;-75
2021/12/16 03:39:26;;;;;;;63.93;22.60;;;;;;;;;;5113278;28;20171;-75
2021/12/16 03:41:51;;;;;;;54.27;21.77;;;;;;;;;;5105977;28;20552;-77
2021/12/16 03:44:18;;;;;;;35.00;16.77;;;;;;;;;;5112929;28;20288;-76
2021/12/16 03:46:46;;;;;;;38.70;15.67;;;;;;;;;;5106391;27;20715;-75
2021/12/16 03:49:14;;;;;;;30.53;13.93;;;;;;;;;;5093955;28;20666;-75
2021/12/16 03:51:43;;;;;;;44.93;16.13;;;;;;;;;;5114573;27;20628;-75
2021/12/16 03:54:21;;;;;;;32.33;14.80;;;;;;;;;;5111972;27;20266;-76
2021/12/16 03:56:46;;;;;;;34.63;14.10;;;;;;;;;;5111873;28;20192;-76
2021/12/16 03:59:13;;;;;;;34.87;13.57;;;;;;;;;;5113531;27;20286;-76
2021/12/16 04:01:38;;;;;;;89.87;18.97;;;;;;;;;;5112773;28;20549;-75
2021/12/16 04:04:04;;;;;;;59.10;16.27;;;;;;;;;;5097572;28;20293;-76
2021/12/16 04:06:30;;;;;;;86.50;18.43;;;;;;;;;;5113106;28;20164;-76
2021/12/16 04:08:57;;;;;;;168.57;27.07;;;;;;;;;;5102672;28;20172;-76
2021/12/16 04:11:24;;;;;;;71.07;17.13;;;;;;;;;;5105648;28;20168;-75
2021/12/16 04:13:58;;;;;;;35.13;13.53;;;;;;;;;;5109287;28;20659;-77
2021/12/16 04:16:26;;;;;;;87.37;16.57;;;;;;;;;;5112895;28;20175;-77
2021/12/16 04:18:51;;;;;;;70.63;14.60;;;;;;;;;;5111609;28;20175;-78
2021/12/16 04:21:19;;;;;;;50.93;13.87;;;;;;;;;;5112403;27;20675;-76
2021/12/16 04:23:44;;;;;;;57.10;14.63;;;;;;;;;;5107482;28;20203;-76
2021/12/16 04:26:10;;;;;;;88.20;17.83;;;;;;;;;;5114240;27;20205;-75
2021/12/16 04:28:35;;;;;;;79.00;15.77;;;;;;;;;;5099342;27;20281;-77
2021/12/16 04:31:00;;;;;;;75.53;17.87;;;;;;;;;;5086860;28;20179;-77
2021/12/16 04:33:26;;;;;;;140.20;24.57;;;;;;;;;;5093812;27;20279;-78
2021/12/16 04:35:51;;;;;;;29.83;11.30;;;;;;;;;;5096234;28;20187;-75
2021/12/16 04:38:16;;;;;;;22.57;10.47;;;;;;;;;;5118909;27;20195;-75
2021/12/16 04:40:44;;;;;;;30.87;11.53;;;;;;;;;;5115859;27;20171;-75
2021/12/16 04:43:10;;;;;;;20.50;11.07;;;;;;;;;;5123022;27;20203;-74
2021/12/16 04:45:36;;;;;;;24.83;10.27;;;;;;;;;;5118559;27;20174;-75
2021/12/16 04:48:03;;;;;;;56.87;14.60;;;;;;;;;;5112414;28;20204;-75
2021/12/16 04:50:28;;;;;;;42.40;12.87;;;;;;;;;;5112359;28;20559;-75
2021/12/16 04:52:53;;;;;;;29.60;11.37;;;;;;;;;;5117767;27;20274;-74
2021/12/16 04:55:22;;;;;;;19.07;11.07;;;;;;;;;;5100109;28;20171;-75
2021/12/16 04:57:48;;;;;;;25.90;10.77;;;;;;;;;;5114060;27;20581;-75
2021/12/16 05:00:15;;;;;;;25.23;11.73;;;;;;;;;;5117097;27;20172;-75
2021/12/16 05:02:40;;;;;;;23.27;11.70;;;;;;;;;;5115114;27;20251;-75
2021/12/16 05:05:05;;;;;;;17.87;10.70;;;;;;;;;;5112322;27;20636;-75
2021/12/16 05:07:31;;;;;;;30.97;11.10;;;;;;;;;;5105623;27;20195;-75
2021/12/16 05:10:08;;;;;;;31.17;12.13;;;;;;;;;;5118295;27;20289;-75
2021/12/16 05:12:37;;;;;;;30.80;11.17;;;;;;;;;;5093722;28;20185;-74
2021/12/16 05:15:04;;;;;;;67.77;14.30;;;;;;;;;;5120050;27;20176;-75
2021/12/16 05:17:35;;;;;;;17.67;10.37;;;;;;;;;;5112694;27;20204;-75
2021/12/16 05:20:07;;;;;;;28.43;12.27;;;;;;;;;;5088554;28;20176;-74
2021/12/16 05:25:35;;;;;;;49.47;13.70;;;;;;;;;;5107215;27;20183;-74
2021/12/16 05:28:00;;;;;;;70.67;15.90;;;;;;;;;;5124353;27;20791;-74
2021/12/16 05:30:26;;;;;;;112.73;25.40;;;;;;;;;;5113028;27;20273;-75
2021/12/16 05:32:51;;;;;;;70.13;17.13;;;;;;;;;;5102163;27;20175;-75
2021/12/16 05:35:19;;;;;;;26.93;12.23;;;;;;;;;;5110686;28;20217;-75
2021/12/16 05:37:45;;;;;;;34.83;12.93;;;;;;;;;;5107714;28;20231;-76
2021/12/16 05:40:11;;;;;;;28.93;12.20;;;;;;;;;;5107029;27;20646;-75
2021/12/16 05:42:37;;;;;;;40.07;13.13;;;;;;;;;;5122792;27;20321;-75
2021/12/16 05:45:03;;;;;;;67.20;16.63;;;;;;;;;;5103176;27;20262;-76
2021/12/16 05:47:28;;;;;;;34.00;12.57;;;;;;;;;;5110827;27;20695;-75
2021/12/16 05:49:53;;;;;;;34.20;13.07;;;;;;;;;;5129103;27;20224;-76
2021/12/16 05:52:19;;;;;;;68.60;17.10;;;;;;;;;;5095529;27;20168;-76
2021/12/16 05:54:44;;;;;;;49.83;14.23;;;;;;;;;;5129613;27;20167;-75
2021/12/16 05:57:09;;;;;;;30.20;13.10;;;;;;;;;;5104622;28;20184;-76
2021/12/16 05:59:34;;;;;;;32.50;13.37;;;;;;;;;;5107765;28;20176;-76
2021/12/16 06:02:00;;;;;;;57.00;15.27;;;;;;;;;;5104038;27;20258;-75
2021/12/16 06:04:25;;;;;;;37.23;13.90;;;;;;;;;;5115272;27;20245;-76
2021/12/16 06:06:50;;;;;;;153.73;28.43;;;;;;;;;;5113572;27;20195;-77
2021/12/16 06:09:15;;;;;;;42.50;14.77;;;;;;;;;;5114209;27;20624;-76
2021/12/16 06:11:43;;;;;;;35.70;13.27;;;;;;;;;;5117246;27;20675;-77
2021/12/16 06:22:38;;;;;;;22.20;10.87;;;;;;;;;;5110144;28;20667;-75
2021/12/16 06:27:52;;;;;;;33.07;11.43;;;;;;;;;;5103755;28;20198;-75
2021/12/16 06:30:20;;;;;;;122.80;20.83;;;;;;;;;;5110481;28;20179;-76
2021/12/16 06:32:46;;;;;;;56.50;15.73;;;;;;;;;;5114159;27;20184;-76
2021/12/16 06:35:11;;;;;;;95.17;20.90;;;;;;;;;;5109529;27;20187;-76
2021/12/16 06:37:37;;;;;;;124.67;23.03;;;;;;;;;;5094573;28;20198;-76
2021/12/16 06:40:03;;;;;;;88.37;19.47;;;;;;;;;;5104920;28;20581;-76
2021/12/16 06:42:29;;;;;;;74.90;16.77;;;;;;;;;;5108914;28;20184;-76
2021/12/16 06:45:08;;;;;;;174.17;25.67;;;;;;;;;;5095964;28;20168;-77
2021/12/16 06:47:44;;;;;;;25.00;11.53;;;;;;;;;;5110106;28;20210;-75
2021/12/16 06:50:12;;;;;;;83.40;19.03;;;;;;;;;;5106564;28;20250;-75
2021/12/16 06:52:44;;;;;;;27.87;11.90;;;;;;;;;;5099538;28;20231;-76
2021/12/16 06:57:41;;;;;;;49.80;15.90;;;;;;;;;;5104704;28;20288;-75
2021/12/16 07:00:14;;;;;;;42.80;15.37;;;;;;;;;;5106734;28;20237;-75
2021/12/16 07:02:51;;;;;;;41.57;13.50;;;;;;;;;;5110549;28;20171;-74
2021/12/16 07:05:18;;;;;;;135.77;22.93;;;;;;;;;;5105022;28;20167;-75
2021/12/16 07:07:43;;;;;;;54.73;15.83;;;;;;;;;;5094832;28;20259;-76
2021/12/16 07:10:10;;;;;;;21.00;12.20;;;;;;;;;;5113263;28;20172;-76
2021/12/16 07:12:37;;;;;;;55.83;15.60;;;;;;;;;;5106751;28;20546;-75
2021/12/16 07:15:08;;;;;;;49.07;17.43;;;;;;;;;;5106643;28;20180;-76
2021/12/16 07:17:33;;;;;;;34.40;12.27;;;;;;;;;;5114452;28;20556;-75
2021/12/16 07:19:59;;;;;;;40.57;13.37;;;;;;;;;;5127182;28;20171;-76
2021/12/16 07:22:24;;;;;;;20.80;10.43;;;;;;;;;;5111376;28;20708;-75
2021/12/16 07:24:49;;;;;;;26.73;11.23;;;;;;;;;;5117034;28;20167;-76
2021/12/16 07:27:14;;;;;;;20.63;11.10;;;;;;;;;;5113032;28;20200;-76
2021/12/16 07:29:39;;;;;;;61.53;16.47;;;;;;;;;;5127292;28;20167;-76
2021/12/16 07:32:05;;;;;;;93.70;19.87;;;;;;;;;;5098558;28;20167;-76
2021/12/16 07:34:31;;;;;;;23.50;11.23;;;;;;;;;;5096002;28;20197;-76
2021/12/16 07:36:56;;;;;;;37.50;12.80;;;;;;;;;;5099527;28;20183;-76
2021/12/16 07:39:28;;;;;;;25.60;12.17;;;;;;;;;;5121338;28;20187;-75
2021/12/16 07:41:54;;;;;;;17.33;10.80;;;;;;;;;;5104942;28;20228;-75
2021/12/16 07:44:19;;;;;;;21.03;12.07;;;;;;;;;;5102650;28;20203;-76
2021/12/16 07:46:44;;;;;;;22.17;12.40;;;;;;;;;;5105829;28;20290;-76
2021/12/16 07:49:11;;;;;;;24.77;13.05;;;;;;;;;;5106956;28;20173;-76
2021/12/16 07:51:37;;;;;;;26.70;12.67;;;;;;;;;;5105702;28;20224;-75
2021/12/16 07:54:03;;;;;;;41.03;14.93;;;;;;;;;;5111123;27;20191;-75
2021/12/16 07:56:28;;;;;;;23.07;12.53;;;;;;;;;;5117832;27;20171;-75
2021/12/16 07:58:53;;;;;;;22.00;12.00;;;;;;;;;;5105200;28;20176;-75
2021/12/16 08:01:18;;;;;;;25.43;12.53;;;;;;;;;;5126125;27;20642;-76
2021/12/16 08:03:44;;;;;;;58.37;16.83;;;;;;;;;;5113251;27;20643;-75
2021/12/16 08:06:12;;;;;;;25.80;12.87;;;;;;;;;;5104276;28;20179;-76
2021/12/16 08:08:37;;;;;;;65.90;16.70;;;;;;;;;;5121424;27;20306;-75
2021/12/16 08:11:03;;;;;;;28.97;11.87;;;;;;;;;;5109892;28;20660;-76
2021/12/16 08:13:29;;;;;;;28.30;12.57;;;;;;;;;;5113016;28;20203;-76
2021/12/16 08:15:54;;;;;;;90.77;22.07;;;;;;;;;;5107497;28;20210;-76
2021/12/16 08:18:19;;;;;;;285.60;38.03;;;;;;;;;;5121659;27;20195;-76
2021/12/16 08:20:44;;;;;;;21.27;10.60;;;;;;;;;;5112597;28;20201;-76
2021/12/16 08:23:10;;;;;;;36.20;13.10;;;;;;;;;;5099026;28;20192;-77
2021/12/16 08:25:37;;;;;;;49.43;14.70;;;;;;;;;;5108330;28;20206;-77
2021/12/16 08:28:03;;;;;;;34.10;12.30;;;;;;;;;;5110480;28;20260;-75
2021/12/16 08:30:30;;;;;;;19.13;11.00;;;;;;;;;;5111233;28;20246;-76
2021/12/16 08:32:56;;;;;;;58.00;15.53;;;;;;;;;;5127289;27;20689;-75
2021/12/16 08:35:21;;;;;;;38.20;13.60;;;;;;;;;;5110767;27;20732;-75
2021/12/16 08:37:46;;;;;;;33.80;14.43;;;;;;;;;;5116824;27;20273;-76
2021/12/16 08:40:15;;;;;;;29.80;12.77;;;;;;;;;;5112735;27;20683;-75
2021/12/16 08:42:40;;;;;;;97.27;20.23;;;;;;;;;;5097289;27;20189;-75
2021/12/16 08:45:09;;;;;;;30.27;14.03;;;;;;;;;;5117377;27;20259;-75
2021/12/16 08:47:34;;;;;;;42.93;16.33;;;;;;;;;;5110639;27;20259;-76
2021/12/16 08:49:59;;;;;;;50.13;17.90;;;;;;;;;;5105768;27;20175;-76
2021/12/16 08:52:25;;;;;;;41.97;16.00;;;;;;;;;;5118929;27;20258;-75
2021/12/16 08:54:51;;;;;;;26.33;13.03;;;;;;;;;;5106154;27;20167;-77
2021/12/16 08:57:16;;;;;;;28.10;13.50;;;;;;;;;;5096611;28;20229;-76
2021/12/16 08:59:43;;;;;;;33.87;15.00;;;;;;;;;;5116700;27;20196;-76
2021/12/16 09:02:09;;;;;;;27.77;14.47;;;;;;;;;;5109991;27;20172;-76
2021/12/16 09:04:35;;;;;;;26.83;14.50;;;;;;;;;;5100786;28;20263;-76
2021/12/16 09:07:03;;;;;;;25.40;14.40;;;;;;;;;;5107890;28;20189;-75
2021/12/16 09:09:34;;;;;;;27.60;16.03;;;;;;;;;;5122129;27;20167;-76
2021/12/16 09:12:25;;;;;;;22.83;12.57;;;;;;;;;;5111537;27;20270;-76
2021/12/16 09:14:50;;;;;;;20.73;12.60;;;;;;;;;;5097397;28;20262;-75
2021/12/16 09:17:15;;;;;;;24.90;14.00;;;;;;;;;;5093443;28;20291;-76
2021/12/16 09:19:43;;;;;;;17.47;12.43;;;;;;;;;;5116284;27;20219;-75
2021/12/16 09:22:10;;;;;;;13.50;11.00;;;;;;;;;;5114303;27;20199;-75
2021/12/16 09:24:35;;;;;;;17.10;11.90;;;;;;;;;;5095150;27;20289;-76
2021/12/16 09:27:00;;;;;;;12.63;10.80;;;;;;;;;;5118547;27;20341;-76
2021/12/16 09:29:25;;;;;;;13.30;9.73;;;;;;;;;;5113261;27;20190;-76
2021/12/16 09:31:51;;;;;;;10.37;8.90;;;;;;;;;;5117967;27;20172;-76
2021/12/16 09:34:16;;;;;;;13.53;10.67;;;;;;;;;;5106461;27;20672;-76
2021/12/16 09:36:43;;;;;;;19.80;14.67;;;;;;;;;;5112059;27;20213;-76
2021/12/16 09:39:13;;;;;;;23.10;17.70;;;;;;;;;;5112722;27;20183;-76
2021/12/16 09:41:40;;;;;;;18.10;15.17;;;;;;;;;;5084762;28;20180;-77
2021/12/16 09:44:05;;;;;;;31.60;21.87;;;;;;;;;;5113170;27;20199;-76
2021/12/16 09:46:31;;;;;;;40.73;27.53;;;;;;;;;;5108127;27;20186;-76
2021/12/16 09:48:57;;;;;;;43.97;31.73;;;;;;;;;;5112573;28;20194;-76
2021/12/16 09:51:24;;;;;;;48.57;35.17;;;;;;;;;;5109797;27;20183;-76
2021/12/16 09:53:52;;;;;;;42.70;33.23;;;;;;;;;;5108338;28;20193;-77
2021/12/16 09:56:18;;;;;;;31.20;25.65;;;;;;;;;;5116022;27;20662;-77
2021/12/16 09:58:44;;;;;;;27.85;23.90;;;;;;;;;;5099384;28;20179;-75
2021/12/16 10:01:12;;;;;;;25.85;22.80;;;;;;;;;;5111818;27;20590;-75
2021/12/16 10:03:39;;;;;;;25.13;22.38;;;;;;;;;;5090863;28;20195;-75
2021/12/16 10:06:04;;;;;;;24.13;21.30;;;;;;;;;;5121866;27;20690;-77
2021/12/16 10:08:29;;;;;;;26.50;23.70;;;;;;;;;;5098911;28;20221;-77
2021/12/16 10:10:55;;;;;;;24.15;20.95;;;;;;;;;;5109425;28;20179;-77
2021/12/16 10:13:31;;;;;;;22.58;20.42;;;;;;;;;;5103734;27;20187;-77
2021/12/16 10:18:34;;;;;;;20.75;16.83;;;;;;;;;;5108855;28;20694;-77
2021/12/16 10:21:01;;;;;;;17.17;14.68;;;;;;;;;;5103221;27;20179;-76
2021/12/16 10:23:29;;;;;;;16.50;14.75;;;;;;;;;;5108114;27;20215;-76
2021/12/16 10:25:58;;;;;;;16.40;14.00;;;;;;;;;;5115010;27;20652;-76
2021/12/16 10:28:29;;;;;;;14.57;12.15;;;;;;;;;;5098451;28;20195;-76
2021/12/16 10:31:17;;;;;;;18.35;12.57;;;;;;;;;;5107732;28;20556;-76
2021/12/16 10:33:45;;;;;;;13.63;11.32;;;;;;;;;;5098634;28;20675;-76
2021/12/16 10:36:13;;;;;;;10.90;9.63;;;;;;;;;;5109677;28;20187;-76
2021/12/16 10:38:46;;;;;;;12.45;10.05;;;;;;;;;;5107735;27;20190;-76
2021/12/16 10:41:14;;;;;;;12.82;9.68;;;;;;;;;;5114442;27;20176;-77
2021/12/16 10:43:42;;;;;;;11.75;8.88;;;;;;;;;;5119322;27;20190;-76
2021/12/16 10:46:08;;;;;;;10.70;9.52;;;;;;;;;;5113401;28;20312;-76
2021/12/16 10:48:39;;;;;;;13.18;9.15;;;;;;;;;;5088126;28;20255;-76
2021/12/16 10:51:10;;;;;;;11.93;9.15;;;;;;;;;;5109114;28;20179;-76
2021/12/16 10:53:41;;;;;;;10.57;9.05;;;;;;;;;;5117092;28;20171;-76
2021/12/16 10:56:07;;;;;;;12.73;9.05;;;;;;;;;;5091051;28;20184;-77
2021/12/16 10:58:53;;;;;;;14.27;10.35;;;;;;;;;;5114940;28;20183;-76
2021/12/16 11:01:28;;;;;;;13.70;9.85;;;;;;;;;;5107687;28;20621;-77
2021/12/16 11:03:53;;;;;;;13.45;9.15;;;;;;;;;;5107221;28;20627;-76
2021/12/16 11:06:45;;;;;;;14.68;9.63;;;;;;;;;;5118869;28;20171;-76
2021/12/16 11:09:37;;;;;;;12.27;9.55;;;;;;;;;;5104580;28;20272;-75
2021/12/16 11:12:17;;;;;;;13.15;9.63;;;;;;;;;;5104543;28;20613;-75
2021/12/16 11:14:44;;;;;;;12.25;9.50;;;;;;;;;;5100726;28;20175;-76
2021/12/16 11:17:11;;;;;;;15.27;10.00;;;;;;;;;;5114560;28;20203;-76
2021/12/16 11:19:57;;;;;;;16.38;9.98;;;;;;;;;;5091716;28;20219;-76
2021/12/16 11:22:24;;;;;;;16.25;9.98;;;;;;;;;;5110328;28;20191;-76
2021/12/16 11:24:52;;;;;;;15.27;10.05;;;;;;;;;;5111065;28;20215;-76
2021/12/16 11:27:19;;;;;;;12.70;10.13;;;;;;;;;;5116018;27;20195;-76
2021/12/16 11:29:44;;;;;;;12.43;10.02;;;;;;;;;;5108961;28;20178;-76
2021/12/16 11:32:29;;;;;;;15.65;10.13;;;;;;;;;;5119521;27;20179;-75
2021/12/16 11:34:54;;;;;;;13.57;9.85;;;;;;;;;;5109053;27;20180;-76
2021/12/16 11:37:23;;;;;;;16.88;10.52;;;;;;;;;;5108553;28;20248;-76
2021/12/16 11:39:48;;;;;;;15.75;10.88;;;;;;;;;;5119980;27;20175;-77
2021/12/16 11:42:13;;;;;;;16.17;10.15;;;;;;;;;;5109755;28;20335;-75
2021/12/16 11:44:40;;;;;;;12.63;9.93;;;;;;;;;;5119326;27;20240;-76
2021/12/16 11:47:05;;;;;;;15.57;10.82;;;;;;;;;;5092884;28;20268;-77
2021/12/16 11:49:30;;;;;;;16.42;10.07;;;;;;;;;;5113574;27;20203;-76
2021/12/16 11:51:59;;;;;;;16.25;10.75;;;;;;;;;;5122461;27;20639;-77
2021/12/16 11:54:27;;;;;;;17.63;11.40;;;;;;;;;;5110773;27;20183;-77
2021/12/16 11:56:58;;;;;;;14.10;11.32;;;;;;;;;;5099609;28;20707;-77
2021/12/16 11:59:38;;;;;;;18.40;11.38;;;;;;;;;;5112038;27;20176;-77
2021/12/16 12:02:04;;;;;;;18.25;11.55;;;;;;;;;;5114178;27;20175;-77
2021/12/16 12:04:33;;;;;;;14.60;10.75;;;;;;;;;;5114350;27;20585;-77
2021/12/16 12:06:58;;;;;;;18.40;11.15;;;;;;;;;;5122393;27;20195;-77
2021/12/16 12:09:39;;;;;;;15.77;10.23;;;;;;;;;;5122322;27;20205;-76
2021/12/16 12:12:05;;;;;;;15.63;12.70;;;;;;;;;;5097066;28;20252;-76
2021/12/16 12:14:32;;;;;;;14.43;11.00;;;;;;;;;;5118714;27;20643;-76
2021/12/16 12:17:02;;;;;;;18.92;11.23;;;;;;;;;;5121946;27;20203;-76
2021/12/16 12:19:28;;;;;;;17.73;12.10;;;;;;;;;;5113409;27;20168;-77
2021/12/16 12:21:57;;;;;;;16.67;12.23;;;;;;;;;;5111237;27;20596;-75
2021/12/16 12:24:25;;;;;;;17.08;12.05;;;;;;;;;;5118761;27;20218;-76
2021/12/16 12:26:50;;;;;;;21.88;13.98;;;;;;;;;;5112785;27;20676;-76
2021/12/16 12:29:28;;;;;;;15.57;12.10;;;;;;;;;;5115700;27;20179;-76
2021/12/16 12:31:58;;;;;;;15.85;10.70;;;;;;;;;;5102653;27;20171;-76
2021/12/16 12:34:26;;;;;;;13.18;11.55;;;;;;;;;;5110224;27;20652;-76
2021/12/16 12:36:53;;;;;;;14.52;11.02;;;;;;;;;;5106219;28;20206;-76
2021/12/16 12:39:21;;;;;;;17.83;10.40;;;;;;;;;;5113167;27;20268;-76
2021/12/16 12:41:46;;;;;;;15.43;11.05;;;;;;;;;;5118223;27;20171;-76
2021/12/16 12:44:12;;;;;;;13.70;10.48;;;;;;;;;;5105121;27;20676;-76
2021/12/16 12:46:39;;;;;;;13.00;9.23;;;;;;;;;;5103369;28;20192;-76
2021/12/16 12:49:06;;;;;;;12.38;9.75;;;;;;;;;;5119554;27;20182;-77
2021/12/16 12:51:37;;;;;;;13.52;9.82;;;;;;;;;;5109730;27;20536;-76
2021/12/16 12:54:13;;;;;;;14.10;10.30;;;;;;;;;;5109090;28;20648;-76
2021/12/16 12:56:38;;;;;;;14.23;9.43;;;;;;;;;;5102194;28;20229;-76
2021/12/16 12:59:06;;;;;;;17.88;10.77;;;;;;;;;;5107964;28;20207;-76
2021/12/16 13:01:33;;;;;;;14.13;10.57;;;;;;;;;;5116407;27;20454;-76
2021/12/16 13:04:24;;;;;;;13.98;10.63;;;;;;;;;;5120238;27;20182;-76
2021/12/16 13:06:55;;;;;;;15.48;10.45;;;;;;;;;;5107144;28;20302;-77
2021/12/16 13:09:41;;;;;;;18.98;11.65;;;;;;;;;;5108421;27;20179;-77
2021/12/16 13:12:30;;;;;;;13.43;10.38;;;;;;;;;;5090715;28;20729;-76
2021/12/16 13:15:05;;;;;;;15.00;10.30;;;;;;;;;;5089248;28;20192;-76
2021/12/16 13:31:06;;;;;;;20.38;9.70;;;;;;;;;;5110115;27;20177;-76
2021/12/16 13:33:40;;;;;;;14.95;9.52;;;;;;;;;;5112548;27;20177;-76
2021/12/16 13:36:15;;;;;;;14.02;9.45;;;;;;;;;;5111299;27;20184;-77
2021/12/16 13:38:42;;;;;;;16.33;10.52;;;;;;;;;;5109586;28;20656;-77
2021/12/16 13:41:09;;;;;;;15.43;9.63;;;;;;;;;;5116901;27;20176;-76
2021/12/16 13:43:34;;;;;;;15.05;9.65;;;;;;;;;;5096326;28;20248;-78
2021/12/16 13:46:28;;;;;;;13.60;9.43;;;;;;;;;;5109691;28;20180;-77
2021/12/16 13:58:10;;;;;;;12.55;9.48;;;;;;;;;;5110810;27;20200;-78
2021/12/16 14:03:25;;;;;;;15.90;9.23;;;;;;;;;;5100086;28;20211;-77
2021/12/16 14:06:09;;;;;;;15.85;10.13;;;;;;;;;;5093041;28;20180;-77
2021/12/16 14:08:40;;;;;;;14.38;10.13;;;;;;;;;;5113911;27;20241;-77
2021/12/16 14:11:39;;;;;;;17.75;9.55;;;;;;;;;;5093897;28;20182;-77
2021/12/16 14:16:32;;;;;;;15.52;10.85;;;;;;;;;;5113274;28;20178;-77
2021/12/16 14:36:29;;;;;;;13.55;9.75;;;;;;;;;;5104603;28;20735;-77
2021/12/16 14:41:36;;;;;;;17.02;11.13;;;;;;;;;;5118358;27;20171;-76
2021/12/16 14:45:10;;;;;;;18.30;12.00;;;;;;;;;;5105606;28;20234;-77
2021/12/16 14:47:12;;;;;;;15.43;10.40;;;;;;;;;;5110270;28;20314;-77
2021/12/16 14:49:41;;;;;;;16.70;11.18;;;;;;;;;;5115266;28;20701;-76
2021/12/16 14:52:12;;;;;;;16.35;11.02;;;;;;;;;;5093865;28;20175;-77
2021/12/16 14:54:44;;;;;;;17.83;11.27;;;;;;;;;;5117818;28;20195;-76
2021/12/16 14:57:10;;;;;;;17.80;11.70;;;;;;;;;;5111465;28;20203;-76
2021/12/16 14:59:35;;;;;;;17.08;12.90;;;;;;;;;;5119146;27;20225;-76
2021/12/16 15:02:01;;;;;;;15.82;11.90;;;;;;;;;;5114684;28;20175;-76
2021/12/16 15:04:29;;;;;;;21.85;12.30;;;;;;;;;;5093858;28;20925;-77
2021/12/16 15:07:00;;;;;;;15.98;11.35;;;;;;;;;;5098388;28;20219;-77
2021/12/16 15:09:31;;;;;;;16.70;12.23;;;;;;;;;;5118795;27;20171;-77
2021/12/16 15:12:09;;;;;;;14.90;12.07;;;;;;;;;;5119413;27;20180;-77
2021/12/16 15:35:48;;;;;;;18.80;13.53;;;;;;;;;;5117706;27;20571;-76
2021/12/16 15:44:57;;;;;;;20.93;14.10;;;;;;;;;;5117831;27;20218;-76
2021/12/16 15:47:23;;;;;;;21.87;15.30;;;;;;;;;;5113453;27;20239;-76
2021/12/16 15:49:49;;;;;;;18.50;13.50;;;;;;;;;;5090568;28;20214;-76
2021/12/16 15:52:14;;;;;;;19.53;14.47;;;;;;;;;;5093982;27;20171;-76
2021/12/16 15:54:46;;;;;;;18.17;13.57;;;;;;;;;;5119237;27;20183;-76
2021/12/16 15:57:12;;;;;;;21.63;15.53;;;;;;;;;;5101499;27;21682;-77
2021/12/16 15:59:37;;;;;;;16.87;13.13;;;;;;;;;;5109319;27;20175;-77
2021/12/16 16:02:02;;;;;;;22.43;14.83;;;;;;;;;;5118179;27;20186;-76
2021/12/16 16:04:33;;;;;;;21.77;15.20;;;;;;;;;;5117466;27;20261;-77
2021/12/16 16:07:05;;;;;;;21.40;15.63;;;;;;;;;;5112994;27;20215;-76
2021/12/16 16:09:52;;;;;;;29.97;16.83;;;;;;;;;;5114371;27;20171;-77
2021/12/16 16:12:19;;;;;;;31.73;16.63;;;;;;;;;;5112462;28;20636;-76
2021/12/16 16:14:46;;;;;;;21.07;14.97;;;;;;;;;;5113975;27;20263;-76
2021/12/16 16:17:16;;;;;;;27.17;16.93;;;;;;;;;;5097644;28;20195;-76
2021/12/16 16:19:41;;;;;;;31.40;17.33;;;;;;;;;;5113491;28;20190;-77
2021/12/16 16:22:07;;;;;;;25.60;15.07;;;;;;;;;;5119222;27;20745;-77
2021/12/16 16:24:34;;;;;;;23.03;17.00;;;;;;;;;;5118527;27;20586;-75
2021/12/16 16:27:01;;;;;;;26.10;16.53;;;;;;;;;;5101362;28;20552;-77
2021/12/16 16:29:27;;;;;;;27.03;16.57;;;;;;;;;;5101602;27;20659;-76
2021/12/16 16:31:53;;;;;;;23.67;15.40;;;;;;;;;;5112387;27;20626;-76
2021/12/16 16:34:21;;;;;;;24.33;17.00;;;;;;;;;;5114196;27;20318;-76
2021/12/16 16:36:49;;;;;;;25.13;16.00;;;;;;;;;;5116034;27;20235;-76
2021/12/16 16:39:16;;;;;;;24.47;15.90;;;;;;;;;;5107310;27;20205;-75
2021/12/16 16:41:45;;;;;;;22.93;15.93;;;;;;;;;;5111125;27;20179;-76
2021/12/16 16:44:13;;;;;;;24.30;16.83;;;;;;;;;;5089602;27;20202;-77
2021/12/16 16:47:04;;;;;;;31.37;17.37;;;;;;;;;;5115806;27;20191;-76
2021/12/16 16:49:31;;;;;;;34.87;19.43;;;;;;;;;;5096999;27;20269;-77
2021/12/16 16:51:59;;;;;;;27.80;16.63;;;;;;;;;;5101787;28;20175;-77
2021/12/16 16:54:30;;;;;;;27.03;16.50;;;;;;;;;;5100059;28;20554;-76
2021/12/16 16:57:00;;;;;;;23.63;15.50;;;;;;;;;;5114412;27;20203;-76
2021/12/16 16:59:28;;;;;;;25.60;16.80;;;;;;;;;;5093002;27;20183;-77
2021/12/16 17:01:53;;;;;;;24.63;16.30;;;;;;;;;;5102313;27;20176;-76
2021/12/16 17:04:19;;;;;;;31.30;18.37;;;;;;;;;;5110746;27;20206;-77
2021/12/16 17:06:46;;;;;;;31.70;19.63;;;;;;;;;;5103831;28;20602;-77
2021/12/16 17:09:11;;;;;;;32.00;19.20;;;;;;;;;;5107939;27;20179;-77
2021/12/16 17:11:46;;;;;;;29.67;18.27;;;;;;;;;;5109881;27;20179;-77
2021/12/16 17:19:26;;;;;;;31.00;19.50;;;;;;;;;;5112537;27;20925;-76
2021/12/16 17:21:52;;;;;;;33.70;19.63;;;;;;;;;;5111416;27;20179;-78
2021/12/16 17:24:19;;;;;;;39.17;22.07;;;;;;;;;;5107177;27;20260;-76
2021/12/16 17:26:48;;;;;;;33.33;18.83;;;;;;;;;;5106362;27;20589;-77
2021/12/16 17:29:17;;;;;;;37.83;21.13;;;;;;;;;;5112762;27;20178;-77
2021/12/16 17:31:48;;;;;;;34.67;22.07;;;;;;;;;;5115533;27;20171;-76
2021/12/16 17:34:20;;;;;;;37.97;20.87;;;;;;;;;;5099388;27;20207;-76
2021/12/16 17:36:51;;;;;;;38.87;20.93;;;;;;;;;;5107955;27;20199;-76
2021/12/16 17:39:17;;;;;;;46.37;24.47;;;;;;;;;;5089659;28;20205;-75
2021/12/16 17:41:42;;;;;;;36.43;21.17;;;;;;;;;;5109680;27;20501;-75
2021/12/16 17:44:12;;;;;;;46.00;23.53;;;;;;;;;;5096099;28;20198;-76
2021/12/16 17:46:38;;;;;;;43.17;23.77;;;;;;;;;;5112636;27;20207;-76
2021/12/16 17:49:05;;;;;;;45.70;23.03;;;;;;;;;;5117632;27;20270;-77
2021/12/16 17:51:30;;;;;;;40.57;22.77;;;;;;;;;;5115241;27;20175;-76
2021/12/16 17:53:57;;;;;;;54.47;26.10;;;;;;;;;;5107501;28;20228;-77
2021/12/16 17:56:23;;;;;;;48.00;25.50;;;;;;;;;;5120981;27;20641;-77
2021/12/16 17:58:50;;;;;;;50.13;25.60;;;;;;;;;;5110412;27;20184;-76
2021/12/16 18:01:18;;;;;;;56.87;26.07;;;;;;;;;;5117299;27;20616;-76
2021/12/16 18:03:48;;;;;;;43.17;22.03;;;;;;;;;;5118608;27;20200;-76
2021/12/16 18:06:18;;;;;;;45.40;22.43;;;;;;;;;;5116244;27;20237;-77